Time;durP1;ratioP1;P1;durP2;ratioP2;P2;SDS_P1;SDS_P2;PMS_P1;PMS_P2;Temp;Humidity;BMP_temperature;BMP_pressure;BME280_temperature;BME280_humidity;BME280_pressure;Samples;Min_cycle;Max_cycle;Signal;HPM_P1;HPM_P2
2021/08/07 00:00:00;;;;;;;7.32;4.55;;;;;;;16.20;90.32;100348.06;10205921;28;20115;-69
2021/08/07 00:04:56;;;;;;;8.27;4.40;;;;;;;16.21;90.26;100359.88;10207803;28;20042;-69
2021/08/07 00:09:53;;;;;;;8.85;5.50;;;;;;;16.12;90.24;100362.88;10200286;28;20088;-69
2021/08/07 00:14:53;;;;;;;7.68;4.68;;;;;;;16.09;90.15;100358.09;10184767;28;20478;-69
2021/08/07 00:19:49;;;;;;;10.13;4.78;;;;;;;16.07;90.22;100345.81;10193398;28;20435;-68
2021/08/07 00:24:47;;;;;;;11.50;4.95;;;;;;;16.04;90.39;100344.59;10195486;28;20133;-68
2021/08/07 00:29:44;;;;;;;6.95;4.30;;;;;;;16.01;90.16;100339.78;10188392;28;20049;-68
2021/08/07 00:34:40;;;;;;;8.90;4.85;;;;;;;15.97;90.59;100344.44;10206106;28;20038;-68
2021/08/07 00:39:37;;;;;;;11.68;5.75;;;;;;;15.92;90.58;100342.78;10201994;28;20117;-69
2021/08/07 00:44:33;;;;;;;9.68;5.25;;;;;;;15.90;90.36;100338.81;10198047;28;20500;-65
2021/08/07 00:49:30;;;;;;;8.30;5.18;;;;;;;15.83;90.25;100333.13;10190123;28;20136;-69
2021/08/07 00:54:26;;;;;;;6.47;4.95;;;;;;;15.83;90.15;100344.13;10210123;28;20041;-68
2021/08/07 00:59:23;;;;;;;7.03;5.00;;;;;;;15.77;90.39;100338.91;10206454;28;20998;-67
2021/08/07 01:04:22;;;;;;;9.48;5.70;;;;;;;15.72;90.42;100339.22;10193407;28;20069;-66
2021/08/07 01:09:48;;;;;;;9.73;6.03;;;;;;;15.72;90.92;100343.94;10192581;28;20455;-65
2021/08/07 01:14:45;;;;;;;7.80;4.93;;;;;;;15.70;91.17;100336.03;10206216;28;20437;-68
2021/08/07 01:20:11;;;;;;;8.52;5.47;;;;;;;15.69;90.66;100326.13;10196029;28;20052;-69
2021/08/07 01:25:10;;;;;;;8.27;5.30;;;;;;;15.65;90.74;100330.78;10193131;28;20219;-69
2021/08/07 01:30:10;;;;;;;12.68;4.85;;;;;;;15.61;90.54;100332.66;10210305;28;20085;-69
2021/08/07 01:35:08;;;;;;;10.55;4.72;;;;;;;15.62;91.15;100334.25;10203085;28;20089;-68
2021/08/07 01:40:05;;;;;;;8.02;5.00;;;;;;;15.64;91.37;100331.94;10201020;28;20045;-67
2021/08/07 01:45:02;;;;;;;12.85;6.78;;;;;;;15.67;91.00;100335.94;10189481;28;20088;-68
2021/08/07 01:50:05;;;;;;;10.15;4.68;;;;;;;15.65;90.65;100333.53;10194595;28;20050;-69
2021/08/07 01:55:12;;;;;;;8.20;5.40;;;;;;;15.62;90.96;100327.94;10213665;28;20120;-69
2021/08/07 02:00:12;;;;;;;11.13;5.22;;;;;;;15.57;90.49;100323.50;10200726;28;20157;-69
2021/08/07 02:05:11;;;;;;;7.85;5.22;;;;;;;15.52;90.54;100329.31;10199232;28;20108;-67
2021/08/07 02:10:08;;;;;;;10.73;5.75;;;;;;;15.47;90.52;100332.34;10205203;28;20129;-68
2021/08/07 02:15:05;;;;;;;8.50;5.22;;;;;;;15.49;90.98;100341.06;10193540;28;20789;-67
2021/08/07 02:20:02;;;;;;;8.27;4.70;;;;;;;15.49;90.49;100338.28;10190236;28;20527;-67
2021/08/07 02:24:59;;;;;;;9.35;5.25;;;;;;;15.50;90.24;100337.13;10195581;28;20070;-68
2021/08/07 02:29:55;;;;;;;14.45;5.43;;;;;;;15.51;90.60;100327.72;10199184;28;20069;-69
2021/08/07 02:34:52;;;;;;;10.65;6.00;;;;;;;15.55;90.61;100323.88;10192020;28;20216;-68
2021/08/07 02:39:49;;;;;;;8.20;4.97;;;;;;;15.54;91.00;100316.75;10188250;28;20396;-67
2021/08/07 02:44:46;;;;;;;8.18;5.60;;;;;;;15.54;90.99;100321.47;10203013;28;20096;-65
2021/08/07 02:49:43;;;;;;;9.95;5.38;;;;;;;15.56;90.75;100325.47;10199729;28;20046;-67
2021/08/07 02:54:40;;;;;;;10.73;5.75;;;;;;;15.58;91.02;100316.84;10175749;28;20144;-65
2021/08/07 02:59:38;;;;;;;10.13;6.28;;;;;;;15.55;91.24;100328.59;10192232;28;20046;-68
2021/08/07 03:04:34;;;;;;;11.05;7.07;;;;;;;15.56;91.59;100319.94;10198299;28;20483;-68
2021/08/07 03:09:31;;;;;;;9.98;5.22;;;;;;;15.59;91.38;100312.91;10198684;28;20045;-66
2021/08/07 03:14:27;;;;;;;7.72;5.13;;;;;;;15.62;91.69;100311.38;10197866;28;20049;-68
2021/08/07 03:19:24;;;;;;;9.48;6.88;;;;;;;15.59;91.42;100310.16;10199925;28;20546;-67
2021/08/07 03:24:21;;;;;;;9.23;5.38;;;;;;;15.55;91.21;100309.31;10203784;28;20046;-68
2021/08/07 03:29:17;;;;;;;8.55;5.90;;;;;;;15.50;91.43;100304.06;10197432;28;20075;-68
2021/08/07 03:34:13;;;;;;;7.93;6.00;;;;;;;15.47;91.40;100305.59;10198073;28;20463;-68
2021/08/07 03:39:10;;;;;;;9.95;6.20;;;;;;;15.42;91.05;100308.63;10199272;28;20046;-65
2021/08/07 03:44:06;;;;;;;8.93;5.75;;;;;;;15.41;91.17;100311.72;10207348;28;20136;-67
2021/08/07 03:49:03;;;;;;;8.45;5.43;;;;;;;15.43;90.94;100326.75;10190231;28;20095;-67
2021/08/07 03:53:59;;;;;;;9.57;6.65;;;;;;;15.46;90.85;100319.75;10204325;28;20815;-67
2021/08/07 03:58:56;;;;;;;9.60;6.25;;;;;;;15.47;90.71;100326.84;10198613;28;20620;-68
2021/08/07 04:03:53;;;;;;;7.93;6.70;;;;;;;15.46;90.65;100325.25;10194198;28;20069;-67
2021/08/07 04:08:56;;;;;;;11.93;7.20;;;;;;;15.43;90.98;100331.47;10193987;28;20041;-67
2021/08/07 04:13:53;;;;;;;8.65;6.90;;;;;;;15.44;90.92;100328.34;10200993;28;20050;-67
2021/08/07 04:18:49;;;;;;;10.65;6.60;;;;;;;15.44;91.04;100322.06;10195162;28;20112;-67
2021/08/07 04:23:46;;;;;;;11.48;6.70;;;;;;;15.44;91.17;100316.53;10202537;28;20083;-67
2021/08/07 04:28:42;;;;;;;11.15;7.30;;;;;;;15.45;91.25;100329.16;10207612;28;20057;-66
2021/08/07 04:33:39;;;;;;;9.40;7.68;;;;;;;15.45;90.84;100334.66;10197868;28;20507;-68
2021/08/07 04:38:35;;;;;;;12.73;7.95;;;;;;;15.42;91.16;100332.63;10187037;28;20051;-68
2021/08/07 04:43:34;;;;;;;11.65;7.75;;;;;;;15.44;91.23;100327.56;10199899;28;20125;-67
2021/08/07 04:48:31;;;;;;;10.05;7.60;;;;;;;15.48;90.99;100333.94;10192331;28;20111;-65
2021/08/07 04:53:27;;;;;;;10.48;7.65;;;;;;;15.50;91.19;100342.63;10201813;28;20092;-68
2021/08/07 04:58:24;;;;;;;10.73;7.80;;;;;;;15.49;91.05;100349.31;10189476;28;20499;-66
2021/08/07 05:03:20;;;;;;;10.80;8.10;;;;;;;15.47;91.24;100344.16;10190567;28;20045;-66
2021/08/07 05:08:17;;;;;;;11.75;9.63;;;;;;;15.53;90.93;100347.44;10193286;28;20050;-68
2021/08/07 05:13:14;;;;;;;11.07;8.00;;;;;;;15.53;91.42;100341.94;10188807;28;20638;-68
2021/08/07 05:18:10;;;;;;;11.80;8.35;;;;;;;15.56;91.36;100341.22;10190701;28;20555;-68
2021/08/07 05:23:06;;;;;;;14.95;8.98;;;;;;;15.62;91.20;100355.47;10194167;28;20049;-67
2021/08/07 05:28:03;;;;;;;10.23;8.57;;;;;;;15.59;90.93;100351.50;10186250;28;20079;-69
2021/08/07 05:33:01;;;;;;;12.45;8.02;;;;;;;15.64;91.07;100354.00;10201611;28;20115;-68
2021/08/07 05:37:57;;;;;;;10.07;8.52;;;;;;;15.65;90.93;100344.56;10197482;28;20046;-68
2021/08/07 05:42:58;;;;;;;10.25;8.55;;;;;;;15.71;90.83;100348.66;10194015;28;20137;-67
2021/08/07 05:47:54;;;;;;;12.10;8.98;;;;;;;15.76;90.99;100345.63;10197371;28;20483;-68
2021/08/07 05:52:51;;;;;;;10.32;9.20;;;;;;;15.82;91.29;100342.56;10192420;28;20045;-67
2021/08/07 05:57:47;;;;;;;9.45;8.45;;;;;;;15.92;91.43;100353.00;10202871;28;20119;-68
2021/08/07 06:02:44;;;;;;;9.85;8.23;;;;;;;15.98;91.13;100357.06;10197736;28;20104;-67
2021/08/07 06:07:41;;;;;;;12.68;8.18;;;;;;;16.00;91.25;100343.72;10207437;28;20077;-68
2021/08/07 06:12:37;;;;;;;13.00;9.68;;;;;;;16.02;90.47;100335.88;10201363;28;20045;-67
2021/08/07 06:17:38;;;;;;;12.05;8.90;;;;;;;16.03;90.87;100337.47;10214925;28;20572;-67
2021/08/07 06:22:34;;;;;;;12.88;9.18;;;;;;;16.06;90.59;100342.28;10199363;28;20096;-68
2021/08/07 06:27:31;;;;;;;15.55;9.65;;;;;;;16.11;90.65;100344.72;10201973;28;20065;-66
2021/08/07 06:32:28;;;;;;;12.95;9.13;;;;;;;16.15;90.40;100351.13;10194966;28;20054;-68
2021/08/07 06:37:24;;;;;;;11.82;8.77;;;;;;;16.13;89.34;100342.41;10211103;28;20077;-66
2021/08/07 06:42:21;;;;;;;11.25;7.57;;;;;;;16.29;90.16;100360.81;10189084;28;20184;-67
2021/08/07 06:47:17;;;;;;;15.10;8.05;;;;;;;16.39;89.29;100360.22;10206269;28;20050;-68
2021/08/07 06:52:14;;;;;;;10.88;7.88;;;;;;;16.47;89.41;100353.66;10196690;28;20041;-68
2021/08/07 06:57:21;;;;;;;9.52;6.65;;;;;;;16.53;88.66;100373.50;10199953;28;20519;-67
2021/08/07 07:02:19;;;;;;;9.68;6.18;;;;;;;16.66;87.44;100368.56;10190862;28;20081;-68
2021/08/07 07:07:16;;;;;;;8.60;6.78;;;;;;;16.74;88.21;100368.34;10193480;28;20042;-69
2021/08/07 07:12:13;;;;;;;8.10;5.85;;;;;;;16.80;88.16;100368.84;10191552;28;20104;-69
2021/08/07 07:17:11;;;;;;;9.07;5.80;;;;;;;16.86;87.89;100377.63;10195664;28;20096;-69
2021/08/07 07:22:08;;;;;;;7.22;4.60;;;;;;;16.87;85.48;100360.69;10212686;28;20871;-68
2021/08/07 07:27:04;;;;;;;10.25;5.53;;;;;;;16.86;84.99;100364.63;10212679;28;20100;-69
2021/08/07 07:32:01;;;;;;;24.80;7.07;;;;;;;16.85;84.21;100376.84;10187159;28;20073;-68
2021/08/07 07:36:57;;;;;;;9.93;4.60;;;;;;;16.83;84.71;100379.19;10203129;28;20073;-68
2021/08/07 07:41:54;;;;;;;7.93;4.20;;;;;;;16.88;84.16;100375.31;10187186;28;20061;-67
2021/08/07 07:46:50;;;;;;;12.30;6.43;;;;;;;16.83;83.52;100390.22;10195315;28;20084;-69
2021/08/07 07:51:47;;;;;;;6.03;3.60;;;;;;;16.82;83.63;100388.63;10199130;28;20128;-68
2021/08/07 07:56:43;;;;;;;9.15;5.15;;;;;;;16.85;83.95;100376.84;10207434;28;20080;-68
2021/08/07 08:01:40;;;;;;;6.45;4.55;;;;;;;16.99;84.12;100382.59;10198225;28;20053;-67
2021/08/07 08:06:37;;;;;;;8.35;4.38;;;;;;;17.17;84.72;100382.06;10194780;28;20069;-68
2021/08/07 08:11:33;;;;;;;8.82;4.40;;;;;;;17.31;84.59;100387.81;10192578;28;20047;-67
2021/08/07 08:16:31;;;;;;;7.38;4.15;;;;;;;17.42;84.96;100372.19;10185159;28;20113;-69
2021/08/07 08:21:28;;;;;;;7.68;4.18;;;;;;;17.42;84.34;100372.19;10208658;28;20042;-68
2021/08/07 08:26:24;;;;;;;10.40;4.85;;;;;;;17.42;83.83;100371.41;10203521;28;20041;-68
2021/08/07 08:31:21;;;;;;;7.35;4.18;;;;;;;17.38;83.82;100371.38;10198174;28;20046;-69
2021/08/07 08:36:17;;;;;;;9.65;4.80;;;;;;;17.42;83.38;100374.97;10198140;28;20042;-68
2021/08/07 08:41:14;;;;;;;8.30;5.20;;;;;;;17.60;83.55;100360.63;10204118;28;20045;-67
2021/08/07 08:46:10;;;;;;;8.55;4.38;;;;;;;17.73;83.60;100367.50;10194198;28;20081;-68
2021/08/07 08:51:08;;;;;;;8.18;4.07;;;;;;;17.80;82.27;100373.13;10182041;28;20042;-68
2021/08/07 08:56:05;;;;;;;9.63;4.10;;;;;;;17.82;81.45;100379.13;10200250;28;20053;-69
2021/08/07 09:01:08;;;;;;;20.90;6.07;;;;;;;17.95;79.77;100370.56;10203835;28;20115;-67
2021/08/07 09:06:06;;;;;;;9.38;4.03;;;;;;;18.09;80.27;100365.22;10201568;28;20052;-68
2021/08/07 09:11:15;;;;;;;7.53;3.50;;;;;;;18.25;80.84;100363.00;10205548;28;20069;-68
2021/08/07 09:16:12;;;;;;;5.68;3.17;;;;;;;18.33;80.25;100374.16;10198855;28;20084;-68
2021/08/07 09:21:14;;;;;;;5.15;3.08;;;;;;;18.40;77.86;100368.69;10186500;28;20096;-68
2021/08/07 09:26:23;;;;;;;5.85;3.28;;;;;;;18.54;78.67;100373.59;10190255;28;20057;-68
2021/08/07 09:31:21;;;;;;;6.38;2.67;;;;;;;18.64;77.48;100362.63;10176146;28;20496;-67
2021/08/07 09:36:39;;;;;;;5.40;2.33;;;;;;;18.68;73.66;100359.88;10202345;28;20050;-66
2021/08/07 09:41:57;;;;;;;6.93;3.45;;;;;;;18.90;73.42;100350.59;10205821;28;20061;-67
2021/08/07 09:47:11;;;;;;;3.95;1.92;;;;;;;19.20;73.07;100354.41;10203313;28;20511;-69
2021/08/07 09:52:08;;;;;;;4.93;1.98;;;;;;;19.31;71.93;100346.97;10204246;28;20046;-69
2021/08/07 09:57:05;;;;;;;5.60;2.00;;;;;;;19.47;73.23;100344.69;10200096;28;20470;-67
2021/08/07 10:02:19;;;;;;;8.45;1.83;;;;;;;19.53;72.15;100342.31;10198906;28;20072;-68
2021/08/07 10:07:15;;;;;;;;;;;;;;;19.74;68.80;100349.97;10208928;28;20419;-68
2021/08/07 10:12:14;;;;;;;7.20;1.63;;;;;;;20.25;67.79;100343.41;10212999;28;19960;-67
2021/08/07 10:17:13;;;;;;;8.13;1.60;;;;;;;20.92;66.87;100344.72;10209614;28;20046;-68
2021/08/07 10:22:12;;;;;;;4.55;1.92;;;;;;;21.92;67.16;100332.56;10192526;28;20042;-67
2021/08/07 10:27:09;;;;;;;6.57;1.98;;;;;;;22.53;61.96;100325.88;10203330;28;20042;-68
2021/08/07 10:32:06;;;;;;;6.03;2.17;;;;;;;21.86;63.02;100323.03;10200773;28;20451;-67
2021/08/07 10:37:04;;;;;;;7.10;2.30;;;;;;;21.06;63.89;100321.66;10209965;28;20045;-68
2021/08/07 10:42:03;;;;;;;5.20;1.90;;;;;;;20.71;65.64;100317.72;10207289;28;20470;-68
2021/08/07 10:47:00;;;;;;;7.60;2.33;;;;;;;21.18;67.78;100312.91;10202377;28;20069;-67
2021/08/07 10:51:56;;;;;;;4.68;2.30;;;;;;;21.19;66.23;100303.38;10195096;28;20108;-68
2021/08/07 10:56:53;;;;;;;4.90;2.15;;;;;;;21.94;62.81;100301.56;10203785;28;20046;-67
2021/08/07 11:01:56;;;;;;;4.35;1.88;;;;;;;23.14;59.03;100292.72;10204102;28;20041;-68
2021/08/07 11:07:04;;;;;;;4.97;1.92;;;;;;;24.69;58.91;100291.47;10209386;28;20049;-68
2021/08/07 11:12:07;;;;;;;5.90;1.80;;;;;;;23.92;54.20;100284.63;10201341;28;20049;-67
2021/08/07 11:17:06;;;;;;;6.10;1.50;;;;;;;24.91;55.89;100270.31;10209022;28;20070;-68
2021/08/07 11:22:02;;;;;;;5.93;1.40;;;;;;;24.64;52.68;100261.22;10205056;28;20795;-69
2021/08/07 11:26:59;;;;;;;5.03;1.55;;;;;;;23.54;55.95;100276.34;10201047;28;20562;-68
2021/08/07 11:32:14;;;;;;;5.30;1.80;;;;;;;22.73;56.49;100282.31;10200678;28;20573;-66
2021/08/07 11:37:13;;;;;;;6.55;1.60;;;;;;;22.90;57.68;100261.84;10197288;28;20050;-68
2021/08/07 11:42:46;;;;;;;5.35;1.40;;;;;;;22.82;59.92;100248.41;10208275;28;20049;-68
2021/08/07 11:47:49;;;;;;;4.50;1.60;;;;;;;23.77;55.14;100239.38;10120399;28;20049;-67
2021/08/07 11:52:46;;;;;;;4.75;1.50;;;;;;;24.08;49.93;100247.72;10197744;28;20475;-68
2021/08/07 11:57:43;;;;;;;7.10;1.00;;;;;;;23.93;51.45;100252.72;10204680;28;20041;-70
2021/08/07 12:02:40;;;;;;;5.60;1.63;;;;;;;24.13;52.37;100239.63;10193364;28;20041;-69
2021/08/07 12:07:36;;;;;;;5.80;1.45;;;;;;;24.13;52.03;100228.47;10196311;28;20463;-68
2021/08/07 12:12:43;;;;;;;4.32;1.17;;;;;;;23.84;51.58;100219.75;10200735;28;20041;-68
2021/08/07 12:17:47;;;;;;;6.25;1.50;;;;;;;23.68;53.15;100203.59;10197968;28;20515;-69
2021/08/07 12:23:01;;;;;;;4.13;1.25;;;;;;;23.46;53.21;100205.88;10207064;28;20045;-69
2021/08/07 12:28:11;;;;;;;5.15;1.27;;;;;;;23.56;54.04;100201.38;10207180;28;20393;-69
2021/08/07 12:33:19;;;;;;;4.07;1.13;;;;;;;23.25;53.93;100198.56;10200751;28;20480;-67
2021/08/07 12:38:19;;;;;;;3.03;1.20;;;;;;;22.89;54.44;100204.53;10186189;28;20064;-69
2021/08/07 12:43:15;;;;;;;3.13;0.98;;;;;;;22.48;54.82;100185.03;10176510;28;20053;-68
2021/08/07 12:48:12;;;;;;;4.05;1.52;;;;;;;22.27;56.25;100183.22;10194449;28;20068;-68
2021/08/07 12:53:09;;;;;;;2.75;1.05;;;;;;;22.06;55.92;100176.59;10194323;28;20053;-69
2021/08/07 12:58:22;;;;;;;4.05;1.60;;;;;;;21.72;56.14;100178.44;10184928;28;20050;-69
2021/08/07 13:03:18;;;;;;;5.90;1.92;;;;;;;21.55;58.32;100186.47;10162726;28;20080;-67
2021/08/07 13:08:25;;;;;;;3.97;1.52;;;;;;;21.08;58.46;100180.31;10198182;28;20050;-68
2021/08/07 13:14:00;;;;;;;5.07;1.35;;;;;;;20.95;59.00;100179.16;10187508;28;20466;-69
2021/08/07 13:19:17;;;;;;;5.43;1.30;;;;;;;20.82;61.68;100178.81;10144665;28;20076;-69
2021/08/07 13:24:32;;;;;;;5.70;2.25;;;;;;;20.58;64.44;100197.91;10193313;28;20046;-67
2021/08/07 13:29:29;;;;;;;10.65;3.78;;;;;;;20.21;70.35;100201.03;10188388;28;20753;-69
2021/08/07 13:34:27;;;;;;;9.77;3.55;;;;;;;19.88;72.61;100203.00;10184409;28;20046;-68
2021/08/07 13:39:24;;;;;;;5.45;2.40;;;;;;;19.76;74.60;100193.06;10174951;28;20061;-68
2021/08/07 13:44:23;;;;;;;9.05;4.18;;;;;;;19.74;76.00;100189.09;10182072;28;20140;-67
2021/08/07 13:49:20;;;;;;;5.65;1.90;;;;;;;20.08;74.45;100183.22;10185615;28;20053;-68
2021/08/07 13:54:16;;;;;;;4.90;1.30;;;;;;;20.18;71.81;100185.19;10191754;28;20053;-69
2021/08/07 13:59:13;;;;;;;6.13;2.20;;;;;;;20.28;71.17;100186.38;10180463;28;20050;-69
2021/08/07 14:04:10;;;;;;;4.97;1.63;;;;;;;20.38;70.08;100182.81;10165978;28;20559;-70
2021/08/07 14:09:06;;;;;;;4.75;1.40;;;;;;;20.60;66.84;100181.63;10188964;28;20073;-68
2021/08/07 14:14:03;;;;;;;3.13;1.38;;;;;;;20.79;64.86;100180.41;10185778;28;20535;-69
2021/08/07 14:18:59;;;;;;;20.35;3.95;;;;;;;20.66;66.71;100176.47;10186887;28;20054;-69
2021/08/07 14:23:56;;;;;;;4.72;1.90;;;;;;;20.37;66.54;100187.56;10206068;28;20542;-68
2021/08/07 14:28:52;;;;;;;7.07;2.60;;;;;;;20.09;69.55;100198.66;10195426;28;20041;-69
2021/08/07 14:33:49;;;;;;;5.00;2.40;;;;;;;19.72;70.08;100208.13;10205295;28;20550;-68
2021/08/07 14:38:45;;;;;;;3.55;1.80;;;;;;;19.55;70.46;100210.41;10186472;28;20049;-69
2021/08/07 14:43:42;;;;;;;4.05;2.10;;;;;;;19.47;71.24;100216.31;10194502;28;20042;-69
2021/08/07 14:48:58;;;;;;;6.70;2.75;;;;;;;19.41;72.37;100204.84;10194683;28;20038;-69
2021/08/07 14:53:55;;;;;;;6.78;3.20;;;;;;;19.41;76.39;100218.69;10196505;28;20057;-68
2021/08/07 14:58:51;;;;;;;5.38;3.30;;;;;;;19.41;78.59;100199.28;10196964;28;20041;-68
2021/08/07 15:03:49;;;;;;;5.13;3.03;;;;;;;19.45;77.04;100200.09;10197620;28;20433;-68
2021/08/07 15:08:46;;;;;;;5.30;2.42;;;;;;;19.49;77.20;100180.69;10196784;28;20129;-68
2021/08/07 15:13:43;;;;;;;4.03;2.15;;;;;;;19.50;74.59;100163.69;10201183;28;20660;-69
2021/08/07 15:18:39;;;;;;;3.40;1.30;;;;;;;19.51;71.95;100154.16;10200128;28;20108;-68
2021/08/07 15:23:36;;;;;;;3.00;1.40;;;;;;;19.53;75.04;100143.47;10195724;28;20569;-70
2021/08/07 15:28:33;;;;;;;5.93;1.75;;;;;;;19.52;74.18;100139.13;10196142;28;20037;-67
2021/08/07 15:33:30;;;;;;;4.63;1.50;;;;;;;19.46;72.92;100135.13;10190552;28;20045;-70
2021/08/07 15:38:27;;;;;;;4.68;1.63;;;;;;;19.48;75.34;100132.78;10192379;28;20134;-69
2021/08/07 15:43:23;;;;;;;5.63;1.70;;;;;;;19.64;76.94;100120.53;10171830;28;20396;-68
2021/08/07 15:48:20;;;;;;;3.17;1.38;;;;;;;20.05;75.08;100109.06;10189058;28;20046;-69
2021/08/07 15:53:16;;;;;;;9.13;1.95;;;;;;;20.24;76.26;100100.34;10190423;28;20061;-69
2021/08/07 15:58:13;;;;;;;3.50;1.50;;;;;;;20.19;76.21;100103.53;10190811;28;20045;-69
2021/08/07 16:03:10;;;;;;;4.55;1.27;;;;;;;20.05;77.03;100092.41;10189481;28;20053;-68
2021/08/07 16:08:07;;;;;;;4.05;1.58;;;;;;;19.89;76.17;100093.63;10188853;28;20046;-70
2021/08/07 16:13:04;;;;;;;5.05;2.17;;;;;;;19.78;76.13;100083.72;10189068;28;20045;-69
2021/08/07 16:18:00;;;;;;;5.40;1.45;;;;;;;19.93;78.30;100077.75;10180573;28;20045;-69
2021/08/07 16:22:57;;;;;;;3.35;1.25;;;;;;;20.51;76.44;100080.44;10198773;28;20050;-68
2021/08/07 16:27:53;;;;;;;2.85;1.25;;;;;;;21.39;69.50;100072.13;10198637;28;20053;-69
2021/08/07 16:32:50;;;;;;;3.65;1.25;;;;;;;22.54;67.96;100071.97;10188978;28;20046;-70
2021/08/07 16:37:46;;;;;;;3.95;1.10;;;;;;;23.72;65.30;100073.16;10189177;28;20045;-69
2021/08/07 16:42:43;;;;;;;3.17;0.93;;;;;;;24.85;56.57;100065.13;10198556;28;20044;-70
2021/08/07 16:47:39;;;;;;;2.80;0.93;;;;;;;25.64;55.97;100074.56;10197389;28;20096;-67
2021/08/07 16:52:56;;;;;;;4.35;0.95;;;;;;;25.87;54.60;100065.22;10185930;28;20559;-69
2021/08/07 16:57:53;;;;;;;5.63;1.40;;;;;;;25.40;53.66;100066.34;10185147;28;20041;-69
2021/08/07 17:02:49;;;;;;;4.65;1.45;;;;;;;24.93;57.23;100069.34;10195801;28;20550;-68
2021/08/07 17:07:57;;;;;;;3.67;1.65;;;;;;;24.15;55.90;100071.66;10189562;28;20060;-68
2021/08/07 17:12:54;;;;;;;5.57;1.85;;;;;;;23.59;56.12;100066.59;10194645;28;20563;-69
2021/08/07 17:18:01;;;;;;;4.93;1.52;;;;;;;23.12;57.43;100069.28;10190064;28;20046;-69
2021/08/07 17:22:58;;;;;;;2.95;1.13;;;;;;;22.73;60.00;100067.75;10189779;28;20403;-68
2021/08/07 17:27:55;;;;;;;5.10;1.67;;;;;;;22.39;62.22;100065.75;10186210;28;20116;-68
2021/08/07 17:32:52;;;;;;;2.22;0.90;;;;;;;22.17;64.07;100069.94;10186234;28;20042;-69
2021/08/07 17:37:49;;;;;;;3.97;1.20;;;;;;;21.98;63.38;100074.88;10193933;28;20116;-69
2021/08/07 17:42:45;;;;;;;2.95;1.13;;;;;;;21.71;63.76;100065.59;10198804;28;20077;-68
2021/08/07 17:47:43;;;;;;;4.40;1.45;;;;;;;21.54;66.50;100067.31;10202108;28;20400;-69
2021/08/07 17:52:42;;;;;;;7.38;1.40;;;;;;;21.35;67.71;100071.34;10190329;28;20041;-68
2021/08/07 17:57:38;;;;;;;4.00;1.42;;;;;;;21.15;69.16;100060.75;10198055;28;20611;-69
2021/08/07 18:02:35;;;;;;;5.57;1.58;;;;;;;20.98;70.25;100058.88;10199589;28;20046;-68
2021/08/07 18:07:32;;;;;;;4.25;1.33;;;;;;;20.81;71.65;100055.75;10196778;28;20088;-68
2021/08/07 18:12:29;;;;;;;6.75;1.48;;;;;;;20.65;72.23;100058.22;10202470;28;20136;-69
2021/08/07 18:17:26;;;;;;;6.32;1.55;;;;;;;20.51;72.99;100063.78;10196936;28;20503;-69
2021/08/07 18:22:23;;;;;;;4.53;1.60;;;;;;;20.37;74.31;100062.63;10191589;28;20041;-68
2021/08/07 18:27:20;;;;;;;4.20;1.52;;;;;;;20.29;74.88;100055.53;10192099;28;20415;-68
2021/08/07 18:32:16;;;;;;;6.65;1.90;;;;;;;20.18;75.45;100063.06;10193178;28;20821;-69
2021/08/07 18:37:13;;;;;;;4.82;1.85;;;;;;;20.10;75.70;100067.06;10192278;28;20081;-68
2021/08/07 18:42:09;;;;;;;8.30;2.65;;;;;;;20.05;75.80;100070.22;10191761;28;20443;-66
2021/08/07 18:47:06;;;;;;;6.82;2.33;;;;;;;19.97;75.89;100081.34;10192945;28;20042;-68
2021/08/07 18:52:03;;;;;;;4.55;2.22;;;;;;;19.90;76.53;100075.78;10191197;28;20092;-68
2021/08/07 18:57:00;;;;;;;6.90;2.20;;;;;;;19.85;77.13;100075.41;10200666;28;20056;-67
2021/08/07 19:01:56;;;;;;;6.78;2.65;;;;;;;19.80;77.31;100098.78;10192898;28;20112;-67
2021/08/07 19:06:53;;;;;;;5.30;2.75;;;;;;;19.81;75.12;100110.66;10188845;28;20038;-68
2021/08/07 19:11:50;;;;;;;5.40;2.80;;;;;;;19.76;74.13;100134.03;10194130;28;20046;-67
2021/08/07 19:16:46;;;;;;;26.80;4.32;;;;;;;19.64;73.16;100128.84;10187431;28;20088;-67
2021/08/07 19:21:43;;;;;;;7.78;1.80;;;;;;;19.51;74.20;100165.25;10203881;28;20092;-68
2021/08/07 19:26:39;;;;;;;5.32;1.90;;;;;;;19.17;77.29;100161.16;10191139;28;20048;-69
2021/08/07 19:31:36;;;;;;;8.82;2.70;;;;;;;18.96;80.10;100146.06;10194978;28;20050;-69
2021/08/07 19:36:32;;;;;;;4.82;2.30;;;;;;;18.75;81.33;100112.69;10180903;28;20041;-69
2021/08/07 19:41:29;;;;;;;4.82;2.58;;;;;;;18.64;82.53;100102.34;10192713;28;20050;-69
2021/08/07 19:46:26;;;;;;;5.38;2.75;;;;;;;18.61;83.10;100092.06;10190574;28;20049;-69
2021/08/07 19:51:22;;;;;;;5.10;2.22;;;;;;;18.57;83.86;100096.78;10189539;28;20049;-69
2021/08/07 19:56:19;;;;;;;6.85;2.97;;;;;;;18.50;84.40;100091.22;10193004;28;20050;-68
2021/08/07 20:01:16;;;;;;;5.60;2.60;;;;;;;18.45;85.04;100108.16;10185761;28;20049;-69
2021/08/07 20:06:13;;;;;;;5.05;3.17;;;;;;;18.41;85.14;100104.59;10193461;28;20050;-69
2021/08/07 20:11:10;;;;;;;6.18;2.67;;;;;;;18.40;85.52;100108.53;10188394;28;20046;-68
2021/08/07 20:16:07;;;;;;;6.95;3.42;;;;;;;18.36;85.30;100102.19;10194825;28;20046;-69
2021/08/07 20:21:04;;;;;;;5.68;2.78;;;;;;;18.32;85.46;100106.91;10187841;28;21345;-70
2021/08/07 20:26:01;;;;;;;8.23;2.80;;;;;;;18.28;84.96;100118.72;10198027;28;20052;-69
2021/08/07 20:30:58;;;;;;;6.97;3.13;;;;;;;18.26;84.89;100126.66;10191275;28;20053;-69
2021/08/07 20:35:55;;;;;;;7.05;2.85;;;;;;;18.24;84.86;100144.78;10190498;28;20508;-68
2021/08/07 20:40:53;;;;;;;6.68;3.42;;;;;;;18.17;85.15;100134.47;10195859;28;20068;-69
2021/08/07 20:45:49;;;;;;;6.18;3.13;;;;;;;18.07;85.25;100135.19;10194346;28;20045;-67
2021/08/07 20:50:47;;;;;;;5.72;2.83;;;;;;;17.94;85.46;100137.47;10186953;28;20069;-70
2021/08/07 20:55:44;;;;;;;7.80;3.70;;;;;;;17.85;85.73;100146.06;10187380;28;20068;-69
2021/08/07 21:00:41;;;;;;;8.15;3.22;;;;;;;17.77;85.72;100141.59;10187299;28;20053;-70
2021/08/07 21:05:38;;;;;;;6.15;3.25;;;;;;;17.74;85.46;100156.19;10187354;28;20508;-67
2021/08/07 21:10:34;;;;;;;5.60;2.70;;;;;;;17.72;84.81;100152.22;10194735;28;20083;-68
2021/08/07 21:15:31;;;;;;;6.82;2.60;;;;;;;17.65;84.92;100141.88;10189599;28;20045;-68
2021/08/07 21:20:27;;;;;;;5.32;2.40;;;;;;;17.60;84.77;100142.25;10180961;28;20057;-67
2021/08/07 21:25:24;;;;;;;6.28;2.85;;;;;;;17.55;84.70;100142.59;10182800;28;20058;-67
2021/08/07 21:30:22;;;;;;;4.70;2.33;;;;;;;17.48;84.36;100136.97;10190231;28;20046;-68
2021/08/07 21:35:18;;;;;;;6.53;2.50;;;;;;;17.40;84.26;100131.34;10195400;28;20407;-69
2021/08/07 21:40:15;;;;;;;6.32;2.80;;;;;;;17.37;84.59;100121.06;10179623;28;20596;-69
2021/08/07 21:45:12;;;;;;;4.47;2.58;;;;;;;17.34;84.61;100127.34;10193761;28;20411;-67
2021/08/07 21:50:09;;;;;;;8.07;3.08;;;;;;;17.28;84.84;100117.03;10193867;28;20487;-69
2021/08/07 21:55:08;;;;;;;5.63;3.38;;;;;;;17.27;84.98;100105.19;10199878;28;20054;-68
2021/08/07 22:00:07;;;;;;;11.48;3.65;;;;;;;17.26;85.13;100098.06;10197394;28;20519;-69
2021/08/07 22:05:04;;;;;;;5.63;2.92;;;;;;;17.24;85.30;100101.22;10197034;28;20108;-69
2021/08/07 22:10:01;;;;;;;5.38;2.90;;;;;;;17.19;85.25;100096.00;10187285;28;20164;-68
2021/08/07 22:14:58;;;;;;;4.75;2.55;;;;;;;17.12;85.24;100103.41;10195605;28;20052;-69
2021/08/07 22:19:57;;;;;;;5.43;2.80;;;;;;;17.11;86.08;100107.38;10177691;28;20041;-68
2021/08/07 22:24:53;;;;;;;6.43;3.15;;;;;;;17.09;85.59;100109.72;10196072;28;20112;-68
2021/08/07 22:29:50;;;;;;;5.00;2.63;;;;;;;17.07;85.75;100101.00;10193978;28;20046;-69
2021/08/07 22:34:46;;;;;;;5.70;3.17;;;;;;;17.03;85.65;100090.72;10186626;28;20073;-69
2021/08/07 22:39:52;;;;;;;7.80;2.97;;;;;;;17.00;85.63;100091.44;10176472;28;20057;-69
2021/08/07 22:44:49;;;;;;;7.25;3.33;;;;;;;16.94;85.60;100098.50;10208231;28;20088;-69
2021/08/07 22:49:46;;;;;;;6.07;3.00;;;;;;;16.92;85.75;100092.56;10184314;28;20042;-69